sensor_id;sensor_type;location;lat;lon;timestamp;P1;durP1;ratioP1;P2;durP2;ratioP2
55328;SDS011;41205;44.264;19.884;2023-07-09T00:00:48;9.82;;;7.35;;
55328;SDS011;41205;44.264;19.884;2023-07-09T00:03:14;8.75;;;6.68;;
55328;SDS011;41205;44.264;19.884;2023-07-09T00:05:41;11.38;;;6.88;;
55328;SDS011;41205;44.264;19.884;2023-07-09T00:08:12;7.65;;;6.85;;
55328;SDS011;41205;44.264;19.884;2023-07-09T00:10:52;9.30;;;6.85;;
55328;SDS011;41205;44.264;19.884;2023-07-09T00:13:18;8.95;;;6.78;;
55328;SDS011;41205;44.264;19.884;2023-07-09T00:15:45;9.73;;;6.75;;
55328;SDS011;41205;44.264;19.884;2023-07-09T00:18:11;8.20;;;6.47;;
55328;SDS011;41205;44.264;19.884;2023-07-09T00:20:36;13.35;;;7.43;;
55328;SDS011;41205;44.264;19.884;2023-07-09T00:23:02;10.38;;;6.80;;
55328;SDS011;41205;44.264;19.884;2023-07-09T00:25:29;7.45;;;6.57;;
55328;SDS011;41205;44.264;19.884;2023-07-09T00:27:56;11.00;;;7.05;;
55328;SDS011;41205;44.264;19.884;2023-07-09T00:30:22;8.82;;;7.40;;
55328;SDS011;41205;44.264;19.884;2023-07-09T00:32:49;9.52;;;7.10;;
55328;SDS011;41205;44.264;19.884;2023-07-09T00:35:15;10.13;;;7.30;;
55328;SDS011;41205;44.264;19.884;2023-07-09T00:37:44;9.80;;;7.35;;
55328;SDS011;41205;44.264;19.884;2023-07-09T00:40:15;9.38;;;6.82;;
55328;SDS011;41205;44.264;19.884;2023-07-09T00:42:44;9.02;;;7.45;;
55328;SDS011;41205;44.264;19.884;2023-07-09T00:45:21;10.20;;;6.53;;
55328;SDS011;41205;44.264;19.884;2023-07-09T00:47:53;8.88;;;7.00;;
55328;SDS011;41205;44.264;19.884;2023-07-09T00:50:33;14.45;;;7.40;;
55328;SDS011;41205;44.264;19.884;2023-07-09T00:53:02;10.57;;;7.05;;
55328;SDS011;41205;44.264;19.884;2023-07-09T00:56:02;10.45;;;6.93;;
55328;SDS011;41205;44.264;19.884;2023-07-09T00:58:34;9.43;;;7.57;;
55328;SDS011;41205;44.264;19.884;2023-07-09T01:01:03;8.68;;;6.78;;
55328;SDS011;41205;44.264;19.884;2023-07-09T01:03:35;9.45;;;7.53;;
55328;SDS011;41205;44.264;19.884;2023-07-09T01:06:12;9.40;;;7.07;;
55328;SDS011;41205;44.264;19.884;2023-07-09T01:08:41;8.68;;;6.30;;
55328;SDS011;41205;44.264;19.884;2023-07-09T01:11:16;9.57;;;7.13;;
55328;SDS011;41205;44.264;19.884;2023-07-09T01:13:55;9.93;;;7.07;;
55328;SDS011;41205;44.264;19.884;2023-07-09T01:16:25;14.82;;;6.75;;
55328;SDS011;41205;44.264;19.884;2023-07-09T01:18:54;10.63;;;7.50;;
55328;SDS011;41205;44.264;19.884;2023-07-09T01:21:20;8.68;;;6.38;;
55328;SDS011;41205;44.264;19.884;2023-07-09T01:23:46;11.55;;;7.55;;
55328;SDS011;41205;44.264;19.884;2023-07-09T01:26:15;13.65;;;7.05;;
55328;SDS011;41205;44.264;19.884;2023-07-09T01:28:42;11.85;;;7.78;;
55328;SDS011;41205;44.264;19.884;2023-07-09T01:31:12;9.30;;;7.53;;
55328;SDS011;41205;44.264;19.884;2023-07-09T01:33:40;11.32;;;7.50;;
55328;SDS011;41205;44.264;19.884;2023-07-09T01:36:13;11.25;;;6.72;;
55328;SDS011;41205;44.264;19.884;2023-07-09T01:38:41;11.35;;;7.22;;
55328;SDS011;41205;44.264;19.884;2023-07-09T01:41:07;8.07;;;6.65;;
55328;SDS011;41205;44.264;19.884;2023-07-09T01:43:33;11.40;;;6.88;;
55328;SDS011;41205;44.264;19.884;2023-07-09T01:46:00;8.43;;;6.68;;
55328;SDS011;41205;44.264;19.884;2023-07-09T01:48:26;10.18;;;7.35;;
55328;SDS011;41205;44.264;19.884;2023-07-09T01:50:52;13.38;;;7.53;;
55328;SDS011;41205;44.264;19.884;2023-07-09T01:53:20;8.77;;;6.78;;
55328;SDS011;41205;44.264;19.884;2023-07-09T01:55:49;11.63;;;6.80;;
55328;SDS011;41205;44.264;19.884;2023-07-09T01:58:15;10.70;;;7.32;;
55328;SDS011;41205;44.264;19.884;2023-07-09T02:00:41;10.80;;;6.93;;
55328;SDS011;41205;44.264;19.884;2023-07-09T02:03:10;10.15;;;6.78;;
55328;SDS011;41205;44.264;19.884;2023-07-09T02:05:36;13.43;;;7.32;;
55328;SDS011;41205;44.264;19.884;2023-07-09T02:08:02;8.38;;;7.05;;
55328;SDS011;41205;44.264;19.884;2023-07-09T02:10:29;8.68;;;6.22;;
55328;SDS011;41205;44.264;19.884;2023-07-09T02:12:54;9.07;;;6.75;;
55328;SDS011;41205;44.264;19.884;2023-07-09T02:15:20;11.23;;;7.15;;
55328;SDS011;41205;44.264;19.884;2023-07-09T02:17:46;8.38;;;6.47;;
55328;SDS011;41205;44.264;19.884;2023-07-09T02:20:12;8.48;;;7.10;;
55328;SDS011;41205;44.264;19.884;2023-07-09T02:22:39;10.30;;;6.97;;
55328;SDS011;41205;44.264;19.884;2023-07-09T02:25:06;8.70;;;7.05;;
55328;SDS011;41205;44.264;19.884;2023-07-09T02:27:32;10.18;;;6.38;;
55328;SDS011;41205;44.264;19.884;2023-07-09T02:30:00;8.65;;;6.82;;
55328;SDS011;41205;44.264;19.884;2023-07-09T02:32:27;10.00;;;7.45;;
55328;SDS011;41205;44.264;19.884;2023-07-09T02:34:53;10.10;;;6.70;;
55328;SDS011;41205;44.264;19.884;2023-07-09T02:37:20;10.70;;;6.80;;
55328;SDS011;41205;44.264;19.884;2023-07-09T02:39:48;13.98;;;8.07;;
55328;SDS011;41205;44.264;19.884;2023-07-09T02:42:15;11.27;;;7.80;;
55328;SDS011;41205;44.264;19.884;2023-07-09T02:44:43;9.77;;;8.38;;
55328;SDS011;41205;44.264;19.884;2023-07-09T02:47:09;12.32;;;7.32;;
55328;SDS011;41205;44.264;19.884;2023-07-09T02:49:36;11.98;;;7.43;;
55328;SDS011;41205;44.264;19.884;2023-07-09T02:52:02;13.15;;;7.05;;
55328;SDS011;41205;44.264;19.884;2023-07-09T02:54:29;9.77;;;6.43;;
55328;SDS011;41205;44.264;19.884;2023-07-09T02:56:55;12.35;;;7.10;;
55328;SDS011;41205;44.264;19.884;2023-07-09T02:59:20;10.45;;;7.07;;
55328;SDS011;41205;44.264;19.884;2023-07-09T03:01:47;9.70;;;6.53;;
55328;SDS011;41205;44.264;19.884;2023-07-09T03:04:13;10.15;;;7.15;;
55328;SDS011;41205;44.264;19.884;2023-07-09T03:06:39;9.82;;;7.28;;
55328;SDS011;41205;44.264;19.884;2023-07-09T03:09:05;12.70;;;7.75;;
55328;SDS011;41205;44.264;19.884;2023-07-09T03:11:32;10.02;;;6.93;;
55328;SDS011;41205;44.264;19.884;2023-07-09T03:13:59;12.18;;;7.55;;
55328;SDS011;41205;44.264;19.884;2023-07-09T03:16:26;9.45;;;7.15;;
55328;SDS011;41205;44.264;19.884;2023-07-09T03:18:53;8.75;;;5.72;;
55328;SDS011;41205;44.264;19.884;2023-07-09T03:21:19;9.65;;;7.03;;
55328;SDS011;41205;44.264;19.884;2023-07-09T03:23:46;9.57;;;7.05;;
55328;SDS011;41205;44.264;19.884;2023-07-09T03:26:12;9.30;;;6.93;;
55328;SDS011;41205;44.264;19.884;2023-07-09T03:28:37;8.63;;;7.07;;
55328;SDS011;41205;44.264;19.884;2023-07-09T03:31:03;9.68;;;6.70;;
55328;SDS011;41205;44.264;19.884;2023-07-09T03:33:29;8.93;;;6.88;;
55328;SDS011;41205;44.264;19.884;2023-07-09T03:35:55;10.70;;;8.18;;
55328;SDS011;41205;44.264;19.884;2023-07-09T03:38:21;9.73;;;7.07;;
55328;SDS011;41205;44.264;19.884;2023-07-09T03:40:53;9.98;;;6.95;;
55328;SDS011;41205;44.264;19.884;2023-07-09T03:43:19;10.48;;;6.88;;
55328;SDS011;41205;44.264;19.884;2023-07-09T03:45:46;10.10;;;6.30;;
55328;SDS011;41205;44.264;19.884;2023-07-09T03:48:12;9.50;;;7.05;;
55328;SDS011;41205;44.264;19.884;2023-07-09T03:50:39;14.23;;;7.45;;
55328;SDS011;41205;44.264;19.884;2023-07-09T03:53:05;9.65;;;7.05;;
55328;SDS011;41205;44.264;19.884;2023-07-09T03:55:30;8.35;;;7.03;;
55328;SDS011;41205;44.264;19.884;2023-07-09T03:57:56;10.90;;;6.50;;
55328;SDS011;41205;44.264;19.884;2023-07-09T04:00:23;14.73;;;6.57;;
55328;SDS011;41205;44.264;19.884;2023-07-09T04:02:50;8.00;;;7.03;;
55328;SDS011;41205;44.264;19.884;2023-07-09T04:05:16;8.70;;;6.82;;
55328;SDS011;41205;44.264;19.884;2023-07-09T04:07:42;18.60;;;6.80;;
55328;SDS011;41205;44.264;19.884;2023-07-09T04:10:09;8.80;;;6.85;;
55328;SDS011;41205;44.264;19.884;2023-07-09T04:12:35;8.65;;;6.80;;
55328;SDS011;41205;44.264;19.884;2023-07-09T04:15:02;8.32;;;6.35;;
55328;SDS011;41205;44.264;19.884;2023-07-09T04:17:29;8.50;;;6.07;;
55328;SDS011;41205;44.264;19.884;2023-07-09T04:19:54;9.50;;;6.85;;
55328;SDS011;41205;44.264;19.884;2023-07-09T04:22:20;11.70;;;6.93;;
55328;SDS011;41205;44.264;19.884;2023-07-09T04:24:46;8.05;;;6.25;;
55328;SDS011;41205;44.264;19.884;2023-07-09T04:27:12;9.65;;;6.95;;
55328;SDS011;41205;44.264;19.884;2023-07-09T04:29:39;8.50;;;5.97;;
55328;SDS011;41205;44.264;19.884;2023-07-09T04:32:05;10.52;;;6.53;;
55328;SDS011;41205;44.264;19.884;2023-07-09T04:34:33;8.45;;;6.78;;
55328;SDS011;41205;44.264;19.884;2023-07-09T04:36:59;13.70;;;6.70;;
55328;SDS011;41205;44.264;19.884;2023-07-09T04:39:24;8.38;;;6.25;;
55328;SDS011;41205;44.264;19.884;2023-07-09T04:41:50;10.25;;;7.00;;
55328;SDS011;41205;44.264;19.884;2023-07-09T04:44:16;7.95;;;6.50;;
55328;SDS011;41205;44.264;19.884;2023-07-09T04:46:41;9.82;;;7.55;;
55328;SDS011;41205;44.264;19.884;2023-07-09T04:49:08;9.85;;;7.63;;
55328;SDS011;41205;44.264;19.884;2023-07-09T04:51:36;11.02;;;6.97;;
55328;SDS011;41205;44.264;19.884;2023-07-09T04:54:02;7.68;;;6.95;;
55328;SDS011;41205;44.264;19.884;2023-07-09T04:56:28;8.98;;;7.53;;
55328;SDS011;41205;44.264;19.884;2023-07-09T04:58:55;8.00;;;7.20;;
55328;SDS011;41205;44.264;19.884;2023-07-09T05:01:20;9.02;;;7.35;;
55328;SDS011;41205;44.264;19.884;2023-07-09T05:03:46;7.70;;;6.85;;
55328;SDS011;41205;44.264;19.884;2023-07-09T05:06:12;8.57;;;7.75;;
55328;SDS011;41205;44.264;19.884;2023-07-09T05:08:40;9.15;;;6.70;;
55328;SDS011;41205;44.264;19.884;2023-07-09T05:11:08;10.00;;;7.57;;
55328;SDS011;41205;44.264;19.884;2023-07-09T05:13:35;8.68;;;7.20;;
55328;SDS011;41205;44.264;19.884;2023-07-09T05:16:01;8.77;;;7.82;;
55328;SDS011;41205;44.264;19.884;2023-07-09T05:18:27;8.45;;;7.65;;
55328;SDS011;41205;44.264;19.884;2023-07-09T05:20:54;9.65;;;7.47;;
55328;SDS011;41205;44.264;19.884;2023-07-09T05:23:20;9.82;;;8.32;;
55328;SDS011;41205;44.264;19.884;2023-07-09T05:25:46;9.45;;;8.45;;
55328;SDS011;41205;44.264;19.884;2023-07-09T05:28:12;9.60;;;8.63;;
55328;SDS011;41205;44.264;19.884;2023-07-09T05:30:40;10.07;;;9.00;;
55328;SDS011;41205;44.264;19.884;2023-07-09T05:33:07;10.07;;;9.00;;
55328;SDS011;41205;44.264;19.884;2023-07-09T05:35:33;11.50;;;10.40;;
55328;SDS011;41205;44.264;19.884;2023-07-09T05:37:58;11.18;;;10.07;;
55328;SDS011;41205;44.264;19.884;2023-07-09T05:40:24;10.55;;;9.75;;
55328;SDS011;41205;44.264;19.884;2023-07-09T05:42:50;10.15;;;9.15;;
55328;SDS011;41205;44.264;19.884;2023-07-09T05:45:15;10.98;;;9.98;;
55328;SDS011;41205;44.264;19.884;2023-07-09T05:47:41;9.70;;;8.98;;
55328;SDS011;41205;44.264;19.884;2023-07-09T05:50:07;11.60;;;10.60;;
55328;SDS011;41205;44.264;19.884;2023-07-09T05:52:33;11.85;;;10.90;;
55328;SDS011;41205;44.264;19.884;2023-07-09T05:54:59;11.63;;;10.60;;
55328;SDS011;41205;44.264;19.884;2023-07-09T05:57:25;12.13;;;11.23;;
55328;SDS011;41205;44.264;19.884;2023-07-09T05:59:51;11.90;;;11.00;;
55328;SDS011;41205;44.264;19.884;2023-07-09T06:02:18;11.95;;;10.95;;
55328;SDS011;41205;44.264;19.884;2023-07-09T06:04:45;11.80;;;10.73;;
55328;SDS011;41205;44.264;19.884;2023-07-09T06:07:14;11.85;;;10.77;;
55328;SDS011;41205;44.264;19.884;2023-07-09T06:09:40;12.63;;;10.30;;
55328;SDS011;41205;44.264;19.884;2023-07-09T06:12:06;12.05;;;11.07;;
55328;SDS011;41205;44.264;19.884;2023-07-09T06:14:32;10.88;;;9.98;;
55328;SDS011;41205;44.264;19.884;2023-07-09T06:16:59;12.30;;;11.50;;
55328;SDS011;41205;44.264;19.884;2023-07-09T06:19:26;13.18;;;11.93;;
55328;SDS011;41205;44.264;19.884;2023-07-09T06:21:52;16.02;;;11.48;;
55328;SDS011;41205;44.264;19.884;2023-07-09T06:24:18;12.02;;;10.93;;
55328;SDS011;41205;44.264;19.884;2023-07-09T06:26:43;12.68;;;11.57;;
55328;SDS011;41205;44.264;19.884;2023-07-09T06:29:09;11.98;;;11.07;;
55328;SDS011;41205;44.264;19.884;2023-07-09T06:31:34;12.13;;;11.13;;
55328;SDS011;41205;44.264;19.884;2023-07-09T06:34:02;12.65;;;11.73;;
55328;SDS011;41205;44.264;19.884;2023-07-09T06:36:28;13.63;;;12.65;;
55328;SDS011;41205;44.264;19.884;2023-07-09T06:38:54;12.57;;;11.45;;
55328;SDS011;41205;44.264;19.884;2023-07-09T06:41:19;13.48;;;12.27;;
55328;SDS011;41205;44.264;19.884;2023-07-09T06:43:45;12.23;;;11.30;;
55328;SDS011;41205;44.264;19.884;2023-07-09T06:46:12;13.93;;;12.80;;
55328;SDS011;41205;44.264;19.884;2023-07-09T06:48:38;13.07;;;12.07;;
55328;SDS011;41205;44.264;19.884;2023-07-09T06:51:04;13.18;;;12.27;;
55328;SDS011;41205;44.264;19.884;2023-07-09T06:53:30;11.95;;;10.90;;
55328;SDS011;41205;44.264;19.884;2023-07-09T06:55:56;14.02;;;12.82;;
55328;SDS011;41205;44.264;19.884;2023-07-09T06:58:24;14.57;;;13.32;;
55328;SDS011;41205;44.264;19.884;2023-07-09T07:00:56;13.57;;;12.57;;
55328;SDS011;41205;44.264;19.884;2023-07-09T07:03:22;12.82;;;11.95;;
55328;SDS011;41205;44.264;19.884;2023-07-09T07:05:50;13.30;;;12.38;;
55328;SDS011;41205;44.264;19.884;2023-07-09T07:08:19;14.23;;;13.07;;
55328;SDS011;41205;44.264;19.884;2023-07-09T07:10:47;13.35;;;12.35;;
55328;SDS011;41205;44.264;19.884;2023-07-09T07:13:13;13.25;;;12.25;;
55328;SDS011;41205;44.264;19.884;2023-07-09T07:15:39;15.30;;;13.80;;
55328;SDS011;41205;44.264;19.884;2023-07-09T07:18:05;13.63;;;12.63;;
55328;SDS011;41205;44.264;19.884;2023-07-09T07:20:32;13.35;;;12.25;;
55328;SDS011;41205;44.264;19.884;2023-07-09T07:22:58;13.35;;;12.45;;
55328;SDS011;41205;44.264;19.884;2023-07-09T07:25:24;14.50;;;13.50;;
55328;SDS011;41205;44.264;19.884;2023-07-09T07:27:50;15.55;;;13.70;;
55328;SDS011;41205;44.264;19.884;2023-07-09T07:30:16;14.95;;;13.85;;
55328;SDS011;41205;44.264;19.884;2023-07-09T07:32:46;15.30;;;14.13;;
55328;SDS011;41205;44.264;19.884;2023-07-09T07:35:13;14.98;;;14.05;;
55328;SDS011;41205;44.264;19.884;2023-07-09T07:37:40;14.68;;;13.68;;
55328;SDS011;41205;44.264;19.884;2023-07-09T07:40:06;14.20;;;13.10;;
55328;SDS011;41205;44.264;19.884;2023-07-09T07:42:33;14.13;;;13.23;;
55328;SDS011;41205;44.264;19.884;2023-07-09T07:44:59;13.00;;;12.13;;
55328;SDS011;41205;44.264;19.884;2023-07-09T07:47:25;13.63;;;12.45;;
55328;SDS011;41205;44.264;19.884;2023-07-09T07:49:52;13.05;;;12.20;;
55328;SDS011;41205;44.264;19.884;2023-07-09T07:52:18;13.05;;;12.25;;
55328;SDS011;41205;44.264;19.884;2023-07-09T07:54:44;13.52;;;12.20;;
55328;SDS011;41205;44.264;19.884;2023-07-09T07:57:10;11.90;;;11.20;;
55328;SDS011;41205;44.264;19.884;2023-07-09T07:59:37;11.88;;;10.93;;
55328;SDS011;41205;44.264;19.884;2023-07-09T08:02:03;12.80;;;11.65;;
55328;SDS011;41205;44.264;19.884;2023-07-09T08:04:31;12.65;;;11.70;;
55328;SDS011;41205;44.264;19.884;2023-07-09T08:06:56;12.48;;;11.57;;
55328;SDS011;41205;44.264;19.884;2023-07-09T08:09:23;10.90;;;10.18;;
55328;SDS011;41205;44.264;19.884;2023-07-09T08:11:49;11.00;;;10.20;;
55328;SDS011;41205;44.264;19.884;2023-07-09T08:14:15;10.55;;;9.80;;
55328;SDS011;41205;44.264;19.884;2023-07-09T08:16:41;10.88;;;10.07;;
55328;SDS011;41205;44.264;19.884;2023-07-09T08:19:07;10.77;;;9.73;;
55328;SDS011;41205;44.264;19.884;2023-07-09T08:21:33;9.98;;;9.35;;
55328;SDS011;41205;44.264;19.884;2023-07-09T08:23:58;8.18;;;7.30;;
55328;SDS011;41205;44.264;19.884;2023-07-09T08:26:24;7.70;;;6.90;;
55328;SDS011;41205;44.264;19.884;2023-07-09T08:28:50;6.15;;;5.55;;
55328;SDS011;41205;44.264;19.884;2023-07-09T08:31:16;7.05;;;6.03;;
55328;SDS011;41205;44.264;19.884;2023-07-09T08:33:43;7.93;;;5.65;;
55328;SDS011;41205;44.264;19.884;2023-07-09T08:36:08;6.63;;;5.07;;
55328;SDS011;41205;44.264;19.884;2023-07-09T08:38:34;7.88;;;5.43;;
55328;SDS011;41205;44.264;19.884;2023-07-09T08:49:54;7.07;;;5.03;;
55328;SDS011;41205;44.264;19.884;2023-07-09T08:52:30;6.25;;;5.65;;
55328;SDS011;41205;44.264;19.884;2023-07-09T08:55:11;7.43;;;5.22;;
55328;SDS011;41205;44.264;19.884;2023-07-09T08:57:41;7.80;;;5.28;;
55328;SDS011;41205;44.264;19.884;2023-07-09T09:05:49;7.30;;;4.60;;
55328;SDS011;41205;44.264;19.884;2023-07-09T09:10:57;7.15;;;4.95;;
55328;SDS011;41205;44.264;19.884;2023-07-09T09:13:34;12.13;;;5.10;;
55328;SDS011;41205;44.264;19.884;2023-07-09T09:16:02;4.80;;;4.18;;
55328;SDS011;41205;44.264;19.884;2023-07-09T09:18:37;8.73;;;4.97;;
55328;SDS011;41205;44.264;19.884;2023-07-09T09:21:14;5.85;;;4.82;;
55328;SDS011;41205;44.264;19.884;2023-07-09T09:23:48;5.82;;;4.78;;
55328;SDS011;41205;44.264;19.884;2023-07-09T09:26:21;5.35;;;4.40;;
55328;SDS011;41205;44.264;19.884;2023-07-09T09:28:52;5.82;;;4.60;;
55328;SDS011;41205;44.264;19.884;2023-07-09T09:31:18;7.95;;;4.20;;
55328;SDS011;41205;44.264;19.884;2023-07-09T09:33:45;4.90;;;4.10;;
55328;SDS011;41205;44.264;19.884;2023-07-09T09:36:17;5.55;;;4.15;;
55328;SDS011;41205;44.264;19.884;2023-07-09T09:38:48;7.38;;;5.13;;
55328;SDS011;41205;44.264;19.884;2023-07-09T09:41:16;5.28;;;4.78;;
55328;SDS011;41205;44.264;19.884;2023-07-09T09:43:45;6.28;;;4.57;;
55328;SDS011;41205;44.264;19.884;2023-07-09T09:46:16;6.43;;;5.13;;
55328;SDS011;41205;44.264;19.884;2023-07-09T09:48:45;5.03;;;4.53;;
55328;SDS011;41205;44.264;19.884;2023-07-09T09:51:13;4.70;;;4.05;;
55328;SDS011;41205;44.264;19.884;2023-07-09T09:53:40;5.57;;;4.88;;
55328;SDS011;41205;44.264;19.884;2023-07-09T09:56:14;4.22;;;3.83;;
55328;SDS011;41205;44.264;19.884;2023-07-09T09:58:45;5.85;;;4.55;;
55328;SDS011;41205;44.264;19.884;2023-07-09T10:01:17;5.90;;;4.68;;
55328;SDS011;41205;44.264;19.884;2023-07-09T10:03:46;5.22;;;4.20;;
55328;SDS011;41205;44.264;19.884;2023-07-09T10:07:01;6.05;;;4.78;;
55328;SDS011;41205;44.264;19.884;2023-07-09T10:14:31;6.53;;;4.57;;
55328;SDS011;41205;44.264;19.884;2023-07-09T10:17:53;7.65;;;4.55;;
55328;SDS011;41205;44.264;19.884;2023-07-09T10:25:42;5.97;;;4.35;;
55328;SDS011;41205;44.264;19.884;2023-07-09T10:34:07;6.93;;;4.60;;
55328;SDS011;41205;44.264;19.884;2023-07-09T10:39:34;6.97;;;4.70;;
55328;SDS011;41205;44.264;19.884;2023-07-09T10:42:12;5.90;;;4.03;;
55328;SDS011;41205;44.264;19.884;2023-07-09T10:47:54;5.95;;;3.85;;
55328;SDS011;41205;44.264;19.884;2023-07-09T10:52:56;7.57;;;4.07;;
55328;SDS011;41205;44.264;19.884;2023-07-09T10:57:59;8.05;;;4.57;;
55328;SDS011;41205;44.264;19.884;2023-07-09T11:00:34;5.00;;;4.60;;
55328;SDS011;41205;44.264;19.884;2023-07-09T11:03:05;5.95;;;4.72;;
55328;SDS011;41205;44.264;19.884;2023-07-09T11:05:44;7.82;;;4.15;;
55328;SDS011;41205;44.264;19.884;2023-07-09T11:08:12;6.07;;;4.57;;
55328;SDS011;41205;44.264;19.884;2023-07-09T11:16:03;5.40;;;4.90;;
55328;SDS011;41205;44.264;19.884;2023-07-09T11:18:32;7.00;;;5.50;;
55328;SDS011;41205;44.264;19.884;2023-07-09T11:21:15;5.35;;;4.50;;
55328;SDS011;41205;44.264;19.884;2023-07-09T11:23:49;4.63;;;4.05;;
55328;SDS011;41205;44.264;19.884;2023-07-09T11:26:30;5.72;;;4.78;;
55328;SDS011;41205;44.264;19.884;2023-07-09T11:29:14;6.07;;;4.65;;
55328;SDS011;41205;44.264;19.884;2023-07-09T11:31:43;6.15;;;4.78;;
55328;SDS011;41205;44.264;19.884;2023-07-09T11:39:17;6.00;;;4.63;;
55328;SDS011;41205;44.264;19.884;2023-07-09T11:41:47;5.47;;;4.68;;
55328;SDS011;41205;44.264;19.884;2023-07-09T11:44:20;4.97;;;4.47;;
55328;SDS011;41205;44.264;19.884;2023-07-09T11:49:21;5.07;;;3.83;;
55328;SDS011;41205;44.264;19.884;2023-07-09T11:51:52;5.13;;;4.63;;
55328;SDS011;41205;44.264;19.884;2023-07-09T11:54:22;8.33;;;4.97;;
55328;SDS011;41205;44.264;19.884;2023-07-09T11:56:58;6.13;;;4.90;;
55328;SDS011;41205;44.264;19.884;2023-07-09T11:59:25;5.45;;;4.18;;
55328;SDS011;41205;44.264;19.884;2023-07-09T12:01:52;5.63;;;4.60;;
55328;SDS011;41205;44.264;19.884;2023-07-09T12:04:21;5.75;;;4.55;;
55328;SDS011;41205;44.264;19.884;2023-07-09T12:06:56;6.78;;;4.80;;
55328;SDS011;41205;44.264;19.884;2023-07-09T12:09:24;6.13;;;4.45;;
55328;SDS011;41205;44.264;19.884;2023-07-09T12:11:57;5.80;;;4.80;;
55328;SDS011;41205;44.264;19.884;2023-07-09T12:14:22;5.00;;;4.50;;
55328;SDS011;41205;44.264;19.884;2023-07-09T12:16:52;5.70;;;4.78;;
55328;SDS011;41205;44.264;19.884;2023-07-09T12:19:20;6.82;;;4.80;;
55328;SDS011;41205;44.264;19.884;2023-07-09T12:21:55;8.13;;;4.38;;
55328;SDS011;41205;44.264;19.884;2023-07-09T12:24:26;5.22;;;4.53;;
55328;SDS011;41205;44.264;19.884;2023-07-09T12:26:59;6.47;;;4.82;;
55328;SDS011;41205;44.264;19.884;2023-07-09T12:29:30;11.48;;;5.00;;
55328;SDS011;41205;44.264;19.884;2023-07-09T12:32:02;6.47;;;4.43;;
55328;SDS011;41205;44.264;19.884;2023-07-09T12:34:31;6.37;;;4.37;;
55328;SDS011;41205;44.264;19.884;2023-07-09T12:36:57;5.57;;;4.40;;
55328;SDS011;41205;44.264;19.884;2023-07-09T12:39:26;6.85;;;4.47;;
55328;SDS011;41205;44.264;19.884;2023-07-09T12:41:59;7.50;;;4.32;;
55328;SDS011;41205;44.264;19.884;2023-07-09T12:44:27;4.97;;;4.28;;
55328;SDS011;41205;44.264;19.884;2023-07-09T12:46:57;5.55;;;4.72;;
55328;SDS011;41205;44.264;19.884;2023-07-09T12:49:30;6.43;;;4.43;;
55328;SDS011;41205;44.264;19.884;2023-07-09T12:52:03;5.53;;;4.18;;
55328;SDS011;41205;44.264;19.884;2023-07-09T12:54:34;6.13;;;3.90;;
55328;SDS011;41205;44.264;19.884;2023-07-09T12:56:59;5.85;;;3.80;;
55328;SDS011;41205;44.264;19.884;2023-07-09T12:59:38;5.15;;;4.65;;
55328;SDS011;41205;44.264;19.884;2023-07-09T13:04:44;4.43;;;3.83;;
55328;SDS011;41205;44.264;19.884;2023-07-09T13:07:45;5.45;;;4.32;;
55328;SDS011;41205;44.264;19.884;2023-07-09T13:10:14;4.90;;;4.15;;
55328;SDS011;41205;44.264;19.884;2023-07-09T13:12:44;7.47;;;4.03;;
55328;SDS011;41205;44.264;19.884;2023-07-09T13:15:27;5.32;;;4.40;;
55328;SDS011;41205;44.264;19.884;2023-07-09T13:18:02;5.82;;;5.22;;
55328;SDS011;41205;44.264;19.884;2023-07-09T13:20:29;4.50;;;3.97;;
55328;SDS011;41205;44.264;19.884;2023-07-09T13:22:56;5.38;;;4.43;;
55328;SDS011;41205;44.264;19.884;2023-07-09T13:25:22;4.18;;;3.78;;
55328;SDS011;41205;44.264;19.884;2023-07-09T13:27:48;8.45;;;4.57;;
55328;SDS011;41205;44.264;19.884;2023-07-09T13:30:14;6.07;;;3.75;;
55328;SDS011;41205;44.264;19.884;2023-07-09T13:32:40;5.00;;;4.10;;
55328;SDS011;41205;44.264;19.884;2023-07-09T13:35:16;4.85;;;4.22;;
55328;SDS011;41205;44.264;19.884;2023-07-09T13:37:44;4.65;;;3.70;;
55328;SDS011;41205;44.264;19.884;2023-07-09T13:40:11;4.05;;;3.47;;
55328;SDS011;41205;44.264;19.884;2023-07-09T13:42:39;6.32;;;3.72;;
55328;SDS011;41205;44.264;19.884;2023-07-09T13:45:10;5.72;;;4.50;;
55328;SDS011;41205;44.264;19.884;2023-07-09T13:47:44;4.80;;;3.90;;
55328;SDS011;41205;44.264;19.884;2023-07-09T13:50:10;7.40;;;4.30;;
55328;SDS011;41205;44.264;19.884;2023-07-09T13:52:36;4.38;;;3.58;;
55328;SDS011;41205;44.264;19.884;2023-07-09T13:55:02;4.90;;;3.63;;
55328;SDS011;41205;44.264;19.884;2023-07-09T13:57:28;4.85;;;4.35;;
55328;SDS011;41205;44.264;19.884;2023-07-09T13:59:54;4.80;;;3.75;;
55328;SDS011;41205;44.264;19.884;2023-07-09T14:02:26;4.57;;;3.75;;
55328;SDS011;41205;44.264;19.884;2023-07-09T14:04:57;5.88;;;3.50;;
55328;SDS011;41205;44.264;19.884;2023-07-09T14:07:28;4.30;;;3.80;;
55328;SDS011;41205;44.264;19.884;2023-07-09T14:09:56;4.07;;;3.38;;
55328;SDS011;41205;44.264;19.884;2023-07-09T14:12:23;6.30;;;4.35;;
55328;SDS011;41205;44.264;19.884;2023-07-09T14:14:50;5.63;;;4.07;;
55328;SDS011;41205;44.264;19.884;2023-07-09T14:17:17;5.07;;;4.20;;
55328;SDS011;41205;44.264;19.884;2023-07-09T14:19:43;4.75;;;4.05;;
55328;SDS011;41205;44.264;19.884;2023-07-09T14:22:19;5.55;;;4.22;;
55328;SDS011;41205;44.264;19.884;2023-07-09T14:24:46;6.95;;;4.53;;
55328;SDS011;41205;44.264;19.884;2023-07-09T14:27:12;9.73;;;4.90;;
55328;SDS011;41205;44.264;19.884;2023-07-09T14:29:37;4.70;;;3.80;;
55328;SDS011;41205;44.264;19.884;2023-07-09T14:32:04;5.30;;;4.40;;
55328;SDS011;41205;44.264;19.884;2023-07-09T14:34:32;5.88;;;4.07;;
55328;SDS011;41205;44.264;19.884;2023-07-09T14:36:58;6.97;;;4.38;;
55328;SDS011;41205;44.264;19.884;2023-07-09T14:39:26;7.22;;;3.83;;
55328;SDS011;41205;44.264;19.884;2023-07-09T14:41:53;5.38;;;4.40;;
55328;SDS011;41205;44.264;19.884;2023-07-09T14:44:24;5.40;;;4.55;;
55328;SDS011;41205;44.264;19.884;2023-07-09T14:46:52;5.25;;;4.47;;
55328;SDS011;41205;44.264;19.884;2023-07-09T14:49:20;5.65;;;4.60;;
55328;SDS011;41205;44.264;19.884;2023-07-09T14:51:46;6.88;;;5.32;;
55328;SDS011;41205;44.264;19.884;2023-07-09T14:56:48;5.55;;;4.15;;
55328;SDS011;41205;44.264;19.884;2023-07-09T14:59:15;7.88;;;4.13;;
55328;SDS011;41205;44.264;19.884;2023-07-09T15:01:41;4.95;;;3.83;;
55328;SDS011;41205;44.264;19.884;2023-07-09T15:06:46;5.45;;;4.00;;
55328;SDS011;41205;44.264;19.884;2023-07-09T15:09:16;10.45;;;5.00;;
55328;SDS011;41205;44.264;19.884;2023-07-09T15:11:46;9.05;;;3.97;;
55328;SDS011;41205;44.264;19.884;2023-07-09T15:14:20;7.82;;;4.85;;
55328;SDS011;41205;44.264;19.884;2023-07-09T15:16:47;4.97;;;4.28;;
55328;SDS011;41205;44.264;19.884;2023-07-09T15:19:15;7.93;;;4.78;;
55328;SDS011;41205;44.264;19.884;2023-07-09T15:21:42;8.30;;;4.55;;
55328;SDS011;41205;44.264;19.884;2023-07-09T15:24:19;4.63;;;3.67;;
55328;SDS011;41205;44.264;19.884;2023-07-09T15:26:46;4.65;;;4.22;;
55328;SDS011;41205;44.264;19.884;2023-07-09T15:29:20;6.95;;;4.38;;
55328;SDS011;41205;44.264;19.884;2023-07-09T15:31:46;8.00;;;4.43;;
55328;SDS011;41205;44.264;19.884;2023-07-09T15:34:12;5.15;;;4.13;;
55328;SDS011;41205;44.264;19.884;2023-07-09T15:36:43;6.95;;;4.60;;
55328;SDS011;41205;44.264;19.884;2023-07-09T15:39:12;6.45;;;5.00;;
55328;SDS011;41205;44.264;19.884;2023-07-09T15:41:38;5.32;;;4.22;;